Terminal Aerodrome Forecast
Issued by NWS

Home | Current Version | Previous Version | Text Only | Print | Product List | Glossary On
Versions: 1 2 3 4 5 6 7 8 9 10 11 12 13 14 15 16 17
000
FTUS43 KGRB 301200 AAA
TAFAUW
TAF AMD
KAUW 301220Z 3012/3112 34004KT 3SM BR SCT005
      TEMPO 3012/3014 1SM BR OVC002
     FM301400 32006KT P6SM SCT025
     FM302000 28008KT P6SM VCSH SCT050 BKN080
     FM310300 29004KT P6SM SCT080=

USA.gov is the U.S. government's official web portal to all federal, state and local government web resources and services.